sensor_id;sensor_type;location;lat;lon;timestamp;P1;durP1;ratioP1;P2;durP2;ratioP2
65407;SDS011;52017;51.230;-2.322;2022-07-25T00:00:39;10.80;;;3.58;;
65407;SDS011;52017;51.230;-2.322;2022-07-25T00:04:21;13.57;;;3.78;;
65407;SDS011;52017;51.230;-2.322;2022-07-25T00:08:04;10.18;;;3.78;;
65407;SDS011;52017;51.230;-2.322;2022-07-25T00:11:47;13.30;;;3.42;;
65407;SDS011;52017;51.230;-2.322;2022-07-25T00:19:37;14.23;;;3.85;;
65407;SDS011;52017;51.230;-2.322;2022-07-25T00:23:19;14.68;;;4.85;;
65407;SDS011;52017;51.230;-2.322;2022-07-25T00:27:15;13.68;;;5.10;;
65407;SDS011;52017;51.230;-2.322;2022-07-25T00:30:57;14.05;;;4.22;;
65407;SDS011;52017;51.230;-2.322;2022-07-25T00:34:40;14.10;;;3.85;;
65407;SDS011;52017;51.230;-2.322;2022-07-25T00:38:24;12.30;;;4.25;;
65407;SDS011;52017;51.230;-2.322;2022-07-25T00:42:07;11.30;;;3.80;;
65407;SDS011;52017;51.230;-2.322;2022-07-25T00:45:49;15.00;;;4.32;;
65407;SDS011;52017;51.230;-2.322;2022-07-25T00:49:46;14.50;;;3.75;;
65407;SDS011;52017;51.230;-2.322;2022-07-25T00:53:35;13.18;;;4.15;;
65407;SDS011;52017;51.230;-2.322;2022-07-25T00:57:28;15.70;;;4.28;;
65407;SDS011;52017;51.230;-2.322;2022-07-25T01:01:10;14.88;;;4.15;;
65407;SDS011;52017;51.230;-2.322;2022-07-25T01:04:52;16.88;;;4.82;;
65407;SDS011;52017;51.230;-2.322;2022-07-25T01:08:40;13.35;;;4.63;;
65407;SDS011;52017;51.230;-2.322;2022-07-25T01:12:23;15.80;;;4.53;;
65407;SDS011;52017;51.230;-2.322;2022-07-25T01:16:06;15.27;;;4.65;;
65407;SDS011;52017;51.230;-2.322;2022-07-25T01:19:52;9.38;;;3.85;;
65407;SDS011;52017;51.230;-2.322;2022-07-25T01:23:34;13.63;;;5.07;;
65407;SDS011;52017;51.230;-2.322;2022-07-25T01:27:16;15.60;;;4.65;;
65407;SDS011;52017;51.230;-2.322;2022-07-25T01:30:58;13.30;;;4.47;;
65407;SDS011;52017;51.230;-2.322;2022-07-25T01:34:41;13.32;;;4.40;;
65407;SDS011;52017;51.230;-2.322;2022-07-25T01:38:23;16.52;;;4.13;;
65407;SDS011;52017;51.230;-2.322;2022-07-25T01:42:05;18.20;;;5.07;;
65407;SDS011;52017;51.230;-2.322;2022-07-25T01:45:47;14.48;;;4.35;;
65407;SDS011;52017;51.230;-2.322;2022-07-25T01:49:29;18.42;;;4.85;;
65407;SDS011;52017;51.230;-2.322;2022-07-25T01:53:12;13.55;;;4.15;;
65407;SDS011;52017;51.230;-2.322;2022-07-25T01:56:54;14.10;;;4.43;;
65407;SDS011;52017;51.230;-2.322;2022-07-25T02:00:36;14.85;;;4.32;;
65407;SDS011;52017;51.230;-2.322;2022-07-25T02:04:18;16.02;;;4.65;;
65407;SDS011;52017;51.230;-2.322;2022-07-25T02:08:00;11.82;;;3.97;;
65407;SDS011;52017;51.230;-2.322;2022-07-25T02:11:43;14.20;;;4.57;;
65407;SDS011;52017;51.230;-2.322;2022-07-25T02:15:25;15.55;;;4.80;;
65407;SDS011;52017;51.230;-2.322;2022-07-25T02:19:07;13.13;;;4.47;;
65407;SDS011;52017;51.230;-2.322;2022-07-25T02:22:49;15.65;;;3.50;;
65407;SDS011;52017;51.230;-2.322;2022-07-25T02:26:32;9.18;;;3.03;;
65407;SDS011;52017;51.230;-2.322;2022-07-25T02:30:22;8.25;;;2.92;;
65407;SDS011;52017;51.230;-2.322;2022-07-25T02:34:04;7.78;;;3.15;;
65407;SDS011;52017;51.230;-2.322;2022-07-25T02:37:51;6.68;;;2.42;;
65407;SDS011;52017;51.230;-2.322;2022-07-25T02:41:33;6.88;;;2.10;;
65407;SDS011;52017;51.230;-2.322;2022-07-25T02:45:25;7.57;;;1.90;;
65407;SDS011;52017;51.230;-2.322;2022-07-25T02:49:07;7.45;;;2.50;;
65407;SDS011;52017;51.230;-2.322;2022-07-25T02:52:49;7.78;;;2.28;;
65407;SDS011;52017;51.230;-2.322;2022-07-25T02:56:31;7.68;;;2.22;;
65407;SDS011;52017;51.230;-2.322;2022-07-25T03:00:18;7.65;;;2.70;;
65407;SDS011;52017;51.230;-2.322;2022-07-25T03:04:00;7.03;;;2.50;;
65407;SDS011;52017;51.230;-2.322;2022-07-25T03:07:46;10.90;;;3.00;;
65407;SDS011;52017;51.230;-2.322;2022-07-25T03:11:28;9.65;;;2.55;;
65407;SDS011;52017;51.230;-2.322;2022-07-25T03:15:11;8.02;;;2.20;;
65407;SDS011;52017;51.230;-2.322;2022-07-25T03:18:53;5.47;;;1.95;;
65407;SDS011;52017;51.230;-2.322;2022-07-25T03:22:46;6.63;;;2.30;;
65407;SDS011;52017;51.230;-2.322;2022-07-25T03:26:29;5.20;;;1.88;;
65407;SDS011;52017;51.230;-2.322;2022-07-25T03:30:11;9.20;;;2.50;;
65407;SDS011;52017;51.230;-2.322;2022-07-25T03:33:53;8.90;;;2.38;;
65407;SDS011;52017;51.230;-2.322;2022-07-25T03:37:44;4.68;;;1.40;;
65407;SDS011;52017;51.230;-2.322;2022-07-25T03:41:31;4.93;;;1.60;;
65407;SDS011;52017;51.230;-2.322;2022-07-25T03:45:13;8.93;;;2.05;;
65407;SDS011;52017;51.230;-2.322;2022-07-25T03:48:55;6.90;;;1.90;;
65407;SDS011;52017;51.230;-2.322;2022-07-25T03:52:38;10.10;;;2.10;;
65407;SDS011;52017;51.230;-2.322;2022-07-25T03:56:20;9.93;;;2.45;;
65407;SDS011;52017;51.230;-2.322;2022-07-25T04:00:03;8.38;;;2.17;;
65407;SDS011;52017;51.230;-2.322;2022-07-25T04:03:46;6.32;;;2.10;;
65407;SDS011;52017;51.230;-2.322;2022-07-25T04:07:28;5.20;;;2.08;;
65407;SDS011;52017;51.230;-2.322;2022-07-25T04:11:10;8.52;;;1.80;;
65407;SDS011;52017;51.230;-2.322;2022-07-25T04:14:53;6.75;;;2.03;;
65407;SDS011;52017;51.230;-2.322;2022-07-25T04:18:35;5.85;;;1.80;;
65407;SDS011;52017;51.230;-2.322;2022-07-25T04:22:18;6.45;;;2.42;;
65407;SDS011;52017;51.230;-2.322;2022-07-25T04:26:17;5.60;;;1.52;;
65407;SDS011;52017;51.230;-2.322;2022-07-25T04:29:59;4.70;;;1.48;;
65407;SDS011;52017;51.230;-2.322;2022-07-25T04:37:27;3.28;;;1.48;;
65407;SDS011;52017;51.230;-2.322;2022-07-25T04:41:09;8.27;;;1.52;;
65407;SDS011;52017;51.230;-2.322;2022-07-25T04:44:52;8.07;;;1.92;;
65407;SDS011;52017;51.230;-2.322;2022-07-25T04:48:34;5.25;;;1.50;;
65407;SDS011;52017;51.230;-2.322;2022-07-25T04:52:16;5.43;;;1.35;;
65407;SDS011;52017;51.230;-2.322;2022-07-25T04:55:59;7.43;;;1.58;;
65407;SDS011;52017;51.230;-2.322;2022-07-25T04:59:41;7.47;;;1.42;;
65407;SDS011;52017;51.230;-2.322;2022-07-25T05:03:25;6.03;;;1.40;;
65407;SDS011;52017;51.230;-2.322;2022-07-25T05:07:11;3.67;;;1.40;;
65407;SDS011;52017;51.230;-2.322;2022-07-25T05:10:55;7.72;;;2.30;;
65407;SDS011;52017;51.230;-2.322;2022-07-25T05:14:37;4.38;;;1.70;;
65407;SDS011;52017;51.230;-2.322;2022-07-25T05:18:19;7.18;;;1.48;;
65407;SDS011;52017;51.230;-2.322;2022-07-25T05:22:02;8.70;;;1.90;;
65407;SDS011;52017;51.230;-2.322;2022-07-25T05:25:45;4.60;;;1.40;;
65407;SDS011;52017;51.230;-2.322;2022-07-25T05:29:27;8.18;;;1.50;;
65407;SDS011;52017;51.230;-2.322;2022-07-25T05:33:09;7.45;;;1.50;;
65407;SDS011;52017;51.230;-2.322;2022-07-25T05:36:51;6.57;;;1.55;;
65407;SDS011;52017;51.230;-2.322;2022-07-25T05:40:33;6.10;;;1.65;;
65407;SDS011;52017;51.230;-2.322;2022-07-25T05:44:15;7.15;;;1.70;;
65407;SDS011;52017;51.230;-2.322;2022-07-25T05:47:57;7.10;;;1.77;;
65407;SDS011;52017;51.230;-2.322;2022-07-25T05:51:44;5.55;;;1.67;;
65407;SDS011;52017;51.230;-2.322;2022-07-25T05:55:26;4.82;;;1.30;;
65407;SDS011;52017;51.230;-2.322;2022-07-25T05:59:08;5.45;;;1.35;;
65407;SDS011;52017;51.230;-2.322;2022-07-25T06:02:51;6.50;;;1.38;;
65407;SDS011;52017;51.230;-2.322;2022-07-25T06:06:34;8.13;;;1.35;;
65407;SDS011;52017;51.230;-2.322;2022-07-25T06:10:16;5.32;;;1.17;;
65407;SDS011;52017;51.230;-2.322;2022-07-25T06:18:05;5.45;;;1.02;;
65407;SDS011;52017;51.230;-2.322;2022-07-25T06:25:27;10.32;;;2.30;;
65407;SDS011;52017;51.230;-2.322;2022-07-25T06:29:10;5.28;;;1.25;;
65407;SDS011;52017;51.230;-2.322;2022-07-25T06:32:52;6.03;;;1.60;;
65407;SDS011;52017;51.230;-2.322;2022-07-25T06:36:36;5.53;;;1.17;;
65407;SDS011;52017;51.230;-2.322;2022-07-25T06:40:19;6.47;;;1.27;;
65407;SDS011;52017;51.230;-2.322;2022-07-25T06:44:02;7.57;;;1.02;;
65407;SDS011;52017;51.230;-2.322;2022-07-25T06:47:45;6.43;;;1.50;;
65407;SDS011;52017;51.230;-2.322;2022-07-25T06:51:27;5.20;;;1.35;;
65407;SDS011;52017;51.230;-2.322;2022-07-25T06:55:10;4.80;;;1.33;;
65407;SDS011;52017;51.230;-2.322;2022-07-25T06:58:56;7.88;;;2.15;;
65407;SDS011;52017;51.230;-2.322;2022-07-25T07:02:56;7.45;;;1.30;;
65407;SDS011;52017;51.230;-2.322;2022-07-25T07:06:41;7.05;;;1.60;;
65407;SDS011;52017;51.230;-2.322;2022-07-25T07:10:25;4.72;;;1.50;;
65407;SDS011;52017;51.230;-2.322;2022-07-25T07:14:08;3.17;;;1.15;;
65407;SDS011;52017;51.230;-2.322;2022-07-25T07:17:58;5.80;;;2.13;;
65407;SDS011;52017;51.230;-2.322;2022-07-25T07:21:45;4.18;;;0.95;;
65407;SDS011;52017;51.230;-2.322;2022-07-25T07:25:56;6.80;;;1.55;;
65407;SDS011;52017;51.230;-2.322;2022-07-25T07:29:39;6.68;;;1.20;;
65407;SDS011;52017;51.230;-2.322;2022-07-25T07:33:22;3.13;;;1.02;;
65407;SDS011;52017;51.230;-2.322;2022-07-25T07:37:07;6.10;;;1.35;;
65407;SDS011;52017;51.230;-2.322;2022-07-25T07:40:52;7.65;;;1.85;;
65407;SDS011;52017;51.230;-2.322;2022-07-25T07:44:36;4.40;;;1.20;;
65407;SDS011;52017;51.230;-2.322;2022-07-25T07:48:20;5.25;;;1.20;;
65407;SDS011;52017;51.230;-2.322;2022-07-25T07:52:02;2.85;;;0.70;;
65407;SDS011;52017;51.230;-2.322;2022-07-25T07:55:45;2.45;;;1.05;;
65407;SDS011;52017;51.230;-2.322;2022-07-25T07:59:35;6.82;;;1.60;;
65407;SDS011;52017;51.230;-2.322;2022-07-25T08:03:20;3.38;;;0.77;;
65407;SDS011;52017;51.230;-2.322;2022-07-25T08:07:05;5.55;;;1.42;;
65407;SDS011;52017;51.230;-2.322;2022-07-25T08:10:50;4.50;;;1.00;;
65407;SDS011;52017;51.230;-2.322;2022-07-25T08:14:39;4.35;;;1.15;;
65407;SDS011;52017;51.230;-2.322;2022-07-25T08:18:21;7.03;;;1.50;;
65407;SDS011;52017;51.230;-2.322;2022-07-25T08:22:05;6.07;;;1.27;;
65407;SDS011;52017;51.230;-2.322;2022-07-25T08:25:48;7.30;;;1.13;;
65407;SDS011;52017;51.230;-2.322;2022-07-25T08:29:45;3.85;;;1.42;;
65407;SDS011;52017;51.230;-2.322;2022-07-25T08:33:28;4.15;;;1.25;;
65407;SDS011;52017;51.230;-2.322;2022-07-25T08:37:11;6.78;;;1.58;;
65407;SDS011;52017;51.230;-2.322;2022-07-25T08:40:55;5.47;;;1.30;;
65407;SDS011;52017;51.230;-2.322;2022-07-25T08:48:38;4.05;;;0.80;;
65407;SDS011;52017;51.230;-2.322;2022-07-25T08:52:47;3.78;;;1.08;;
65407;SDS011;52017;51.230;-2.322;2022-07-25T08:56:30;3.60;;;0.95;;
65407;SDS011;52017;51.230;-2.322;2022-07-25T09:00:16;2.35;;;0.82;;
65407;SDS011;52017;51.230;-2.322;2022-07-25T09:04:18;4.70;;;0.95;;
65407;SDS011;52017;51.230;-2.322;2022-07-25T09:08:14;5.40;;;1.85;;
65407;SDS011;52017;51.230;-2.322;2022-07-25T09:12:04;4.97;;;1.05;;
65407;SDS011;52017;51.230;-2.322;2022-07-25T09:15:52;3.17;;;0.90;;
65407;SDS011;52017;51.230;-2.322;2022-07-25T09:19:40;1.92;;;0.77;;
65407;SDS011;52017;51.230;-2.322;2022-07-25T09:23:33;2.85;;;0.98;;
65407;SDS011;52017;51.230;-2.322;2022-07-25T09:27:18;2.65;;;1.15;;
65407;SDS011;52017;51.230;-2.322;2022-07-25T09:31:00;5.60;;;1.95;;
65407;SDS011;52017;51.230;-2.322;2022-07-25T09:34:44;3.20;;;1.10;;
65407;SDS011;52017;51.230;-2.322;2022-07-25T09:38:30;4.53;;;1.17;;
65407;SDS011;52017;51.230;-2.322;2022-07-25T09:46:28;5.95;;;1.15;;
65407;SDS011;52017;51.230;-2.322;2022-07-25T09:50:12;7.28;;;1.70;;
65407;SDS011;52017;51.230;-2.322;2022-07-25T09:53:54;3.63;;;1.20;;
65407;SDS011;52017;51.230;-2.322;2022-07-25T09:57:37;4.28;;;1.15;;
65407;SDS011;52017;51.230;-2.322;2022-07-25T10:01:21;6.90;;;1.80;;
65407;SDS011;52017;51.230;-2.322;2022-07-25T10:09:12;7.00;;;1.80;;
65407;SDS011;52017;51.230;-2.322;2022-07-25T10:13:01;10.05;;;2.08;;
65407;SDS011;52017;51.230;-2.322;2022-07-25T10:16:50;9.35;;;2.00;;
65407;SDS011;52017;51.230;-2.322;2022-07-25T10:20:33;9.48;;;1.80;;
65407;SDS011;52017;51.230;-2.322;2022-07-25T10:24:17;5.90;;;1.60;;
65407;SDS011;52017;51.230;-2.322;2022-07-25T10:27:59;7.53;;;1.77;;
65407;SDS011;52017;51.230;-2.322;2022-07-25T10:31:51;5.60;;;1.42;;
65407;SDS011;52017;51.230;-2.322;2022-07-25T10:35:46;5.65;;;1.42;;
65407;SDS011;52017;51.230;-2.322;2022-07-25T10:39:35;4.00;;;1.52;;
65407;SDS011;52017;51.230;-2.322;2022-07-25T10:43:20;6.43;;;1.38;;
65407;SDS011;52017;51.230;-2.322;2022-07-25T10:47:04;3.78;;;1.58;;
65407;SDS011;52017;51.230;-2.322;2022-07-25T10:54:50;6.63;;;1.20;;
65407;SDS011;52017;51.230;-2.322;2022-07-25T11:02:29;7.80;;;1.35;;
65407;SDS011;52017;51.230;-2.322;2022-07-25T11:06:29;8.07;;;1.80;;
65407;SDS011;52017;51.230;-2.322;2022-07-25T11:10:25;5.72;;;1.60;;
65407;SDS011;52017;51.230;-2.322;2022-07-25T11:14:16;3.55;;;1.38;;
65407;SDS011;52017;51.230;-2.322;2022-07-25T11:22:00;10.30;;;3.40;;
65407;SDS011;52017;51.230;-2.322;2022-07-25T11:25:49;8.77;;;2.00;;
65407;SDS011;52017;51.230;-2.322;2022-07-25T11:29:32;3.77;;;1.50;;
65407;SDS011;52017;51.230;-2.322;2022-07-25T11:33:14;4.45;;;1.60;;
65407;SDS011;52017;51.230;-2.322;2022-07-25T11:36:58;9.35;;;1.60;;
65407;SDS011;52017;51.230;-2.322;2022-07-25T11:40:42;5.82;;;1.42;;
65407;SDS011;52017;51.230;-2.322;2022-07-25T11:44:29;5.82;;;1.33;;
65407;SDS011;52017;51.230;-2.322;2022-07-25T11:48:16;8.65;;;3.38;;
65407;SDS011;52017;51.230;-2.322;2022-07-25T11:52:00;4.80;;;1.63;;
65407;SDS011;52017;51.230;-2.322;2022-07-25T11:55:42;5.63;;;1.23;;
65407;SDS011;52017;51.230;-2.322;2022-07-25T11:59:28;4.85;;;1.55;;
65407;SDS011;52017;51.230;-2.322;2022-07-25T12:03:11;3.90;;;1.08;;
65407;SDS011;52017;51.230;-2.322;2022-07-25T12:07:03;7.72;;;1.70;;
65407;SDS011;52017;51.230;-2.322;2022-07-25T12:10:49;5.63;;;1.65;;
65407;SDS011;52017;51.230;-2.322;2022-07-25T12:14:42;6.00;;;1.40;;
65407;SDS011;52017;51.230;-2.322;2022-07-25T12:18:26;6.50;;;1.48;;
65407;SDS011;52017;51.230;-2.322;2022-07-25T12:22:09;4.10;;;1.33;;
65407;SDS011;52017;51.230;-2.322;2022-07-25T12:25:53;10.77;;;3.03;;
65407;SDS011;52017;51.230;-2.322;2022-07-25T12:29:35;6.20;;;1.70;;
65407;SDS011;52017;51.230;-2.322;2022-07-25T12:33:17;7.35;;;2.13;;
65407;SDS011;52017;51.230;-2.322;2022-07-25T12:37:00;5.18;;;2.00;;
65407;SDS011;52017;51.230;-2.322;2022-07-25T12:40:42;5.70;;;1.65;;
65407;SDS011;52017;51.230;-2.322;2022-07-25T12:44:26;7.55;;;2.25;;
65407;SDS011;52017;51.230;-2.322;2022-07-25T12:48:08;4.15;;;1.40;;
65407;SDS011;52017;51.230;-2.322;2022-07-25T12:51:50;4.18;;;1.77;;
65407;SDS011;52017;51.230;-2.322;2022-07-25T12:55:40;5.18;;;1.65;;
65407;SDS011;52017;51.230;-2.322;2022-07-25T12:59:25;4.38;;;1.20;;
65407;SDS011;52017;51.230;-2.322;2022-07-25T13:03:07;7.50;;;2.35;;
65407;SDS011;52017;51.230;-2.322;2022-07-25T13:06:51;6.35;;;1.35;;
65407;SDS011;52017;51.230;-2.322;2022-07-25T13:10:35;6.40;;;1.63;;
65407;SDS011;52017;51.230;-2.322;2022-07-25T13:14:17;7.78;;;1.58;;
65407;SDS011;52017;51.230;-2.322;2022-07-25T13:17:59;6.82;;;1.95;;
65407;SDS011;52017;51.230;-2.322;2022-07-25T13:21:43;6.65;;;1.52;;
65407;SDS011;52017;51.230;-2.322;2022-07-25T13:25:27;10.68;;;1.67;;
65407;SDS011;52017;51.230;-2.322;2022-07-25T13:29:13;5.57;;;1.77;;
65407;SDS011;52017;51.230;-2.322;2022-07-25T13:32:59;7.28;;;1.77;;
65407;SDS011;52017;51.230;-2.322;2022-07-25T13:36:43;7.50;;;2.42;;
65407;SDS011;52017;51.230;-2.322;2022-07-25T13:40:29;8.50;;;2.72;;
65407;SDS011;52017;51.230;-2.322;2022-07-25T13:44:11;2.72;;;1.17;;
65407;SDS011;52017;51.230;-2.322;2022-07-25T13:47:56;5.88;;;1.48;;
65407;SDS011;52017;51.230;-2.322;2022-07-25T13:52:01;5.25;;;1.23;;
65407;SDS011;52017;51.230;-2.322;2022-07-25T13:55:44;4.13;;;1.17;;
65407;SDS011;52017;51.230;-2.322;2022-07-25T13:59:33;8.13;;;1.55;;
65407;SDS011;52017;51.230;-2.322;2022-07-25T14:03:15;6.28;;;1.50;;
65407;SDS011;52017;51.230;-2.322;2022-07-25T14:06:58;5.55;;;1.88;;
65407;SDS011;52017;51.230;-2.322;2022-07-25T14:10:41;5.40;;;1.48;;
65407;SDS011;52017;51.230;-2.322;2022-07-25T14:14:24;5.97;;;2.15;;
65407;SDS011;52017;51.230;-2.322;2022-07-25T14:18:07;5.88;;;1.40;;
65407;SDS011;52017;51.230;-2.322;2022-07-25T14:21:50;4.25;;;1.80;;
65407;SDS011;52017;51.230;-2.322;2022-07-25T14:25:32;3.47;;;1.38;;
65407;SDS011;52017;51.230;-2.322;2022-07-25T14:29:14;3.38;;;1.40;;
65407;SDS011;52017;51.230;-2.322;2022-07-25T14:33:01;3.78;;;1.70;;
65407;SDS011;52017;51.230;-2.322;2022-07-25T14:36:43;5.28;;;1.75;;
65407;SDS011;52017;51.230;-2.322;2022-07-25T14:40:27;6.70;;;1.95;;
65407;SDS011;52017;51.230;-2.322;2022-07-25T14:44:19;4.10;;;1.40;;
65407;SDS011;52017;51.230;-2.322;2022-07-25T14:48:23;5.13;;;1.60;;
65407;SDS011;52017;51.230;-2.322;2022-07-25T14:52:09;6.95;;;1.30;;
65407;SDS011;52017;51.230;-2.322;2022-07-25T14:55:54;6.93;;;2.40;;
65407;SDS011;52017;51.230;-2.322;2022-07-25T14:59:37;7.10;;;1.60;;
65407;SDS011;52017;51.230;-2.322;2022-07-25T15:03:19;2.72;;;1.17;;
65407;SDS011;52017;51.230;-2.322;2022-07-25T15:07:01;2.72;;;1.23;;
65407;SDS011;52017;51.230;-2.322;2022-07-25T15:10:44;6.75;;;1.77;;
65407;SDS011;52017;51.230;-2.322;2022-07-25T15:14:27;7.07;;;1.45;;
65407;SDS011;52017;51.230;-2.322;2022-07-25T15:18:18;5.60;;;1.77;;
65407;SDS011;52017;51.230;-2.322;2022-07-25T15:22:00;4.68;;;0.93;;
65407;SDS011;52017;51.230;-2.322;2022-07-25T15:25:43;5.38;;;1.25;;
65407;SDS011;52017;51.230;-2.322;2022-07-25T15:29:42;3.45;;;1.02;;
65407;SDS011;52017;51.230;-2.322;2022-07-25T15:33:25;5.28;;;0.85;;
65407;SDS011;52017;51.230;-2.322;2022-07-25T15:37:07;3.13;;;1.10;;
65407;SDS011;52017;51.230;-2.322;2022-07-25T15:40:50;2.75;;;1.40;;
65407;SDS011;52017;51.230;-2.322;2022-07-25T15:44:32;4.65;;;1.00;;
65407;SDS011;52017;51.230;-2.322;2022-07-25T15:48:15;3.53;;;1.17;;
65407;SDS011;52017;51.230;-2.322;2022-07-25T15:51:57;3.85;;;1.00;;
65407;SDS011;52017;51.230;-2.322;2022-07-25T15:55:40;3.75;;;1.02;;
65407;SDS011;52017;51.230;-2.322;2022-07-25T15:59:23;3.47;;;1.20;;
65407;SDS011;52017;51.230;-2.322;2022-07-25T16:03:05;5.82;;;1.23;;
65407;SDS011;52017;51.230;-2.322;2022-07-25T16:06:48;2.20;;;0.93;;
65407;SDS011;52017;51.230;-2.322;2022-07-25T16:10:31;4.60;;;1.35;;
65407;SDS011;52017;51.230;-2.322;2022-07-25T16:14:15;3.30;;;1.05;;
65407;SDS011;52017;51.230;-2.322;2022-07-25T16:17:57;5.10;;;1.10;;
65407;SDS011;52017;51.230;-2.322;2022-07-25T16:25:26;7.82;;;1.20;;
65407;SDS011;52017;51.230;-2.322;2022-07-25T16:29:09;5.57;;;1.30;;
65407;SDS011;52017;51.230;-2.322;2022-07-25T16:32:52;3.25;;;1.25;;
65407;SDS011;52017;51.230;-2.322;2022-07-25T16:36:35;6.20;;;1.33;;
65407;SDS011;52017;51.230;-2.322;2022-07-25T16:40:18;4.72;;;1.50;;
65407;SDS011;52017;51.230;-2.322;2022-07-25T16:44:02;3.63;;;1.25;;
65407;SDS011;52017;51.230;-2.322;2022-07-25T16:47:59;8.00;;;1.25;;
65407;SDS011;52017;51.230;-2.322;2022-07-25T16:51:41;5.57;;;1.40;;
65407;SDS011;52017;51.230;-2.322;2022-07-25T16:55:25;8.63;;;1.25;;
65407;SDS011;52017;51.230;-2.322;2022-07-25T16:59:07;3.75;;;1.20;;
65407;SDS011;52017;51.230;-2.322;2022-07-25T17:02:50;6.05;;;1.63;;
65407;SDS011;52017;51.230;-2.322;2022-07-25T17:06:33;5.55;;;1.45;;
65407;SDS011;52017;51.230;-2.322;2022-07-25T17:10:16;5.55;;;1.70;;
65407;SDS011;52017;51.230;-2.322;2022-07-25T17:13:59;6.32;;;1.52;;
65407;SDS011;52017;51.230;-2.322;2022-07-25T17:17:42;9.93;;;1.85;;
65407;SDS011;52017;51.230;-2.322;2022-07-25T17:21:24;6.55;;;1.80;;
65407;SDS011;52017;51.230;-2.322;2022-07-25T17:25:06;5.78;;;1.42;;
65407;SDS011;52017;51.230;-2.322;2022-07-25T17:28:49;4.55;;;1.30;;
65407;SDS011;52017;51.230;-2.322;2022-07-25T17:32:33;4.53;;;1.40;;
65407;SDS011;52017;51.230;-2.322;2022-07-25T17:36:16;4.80;;;1.23;;
65407;SDS011;52017;51.230;-2.322;2022-07-25T17:39:59;9.55;;;1.48;;
65407;SDS011;52017;51.230;-2.322;2022-07-25T17:43:42;2.38;;;1.17;;
65407;SDS011;52017;51.230;-2.322;2022-07-25T17:47:25;5.68;;;1.27;;
65407;SDS011;52017;51.230;-2.322;2022-07-25T17:51:09;2.45;;;1.00;;
65407;SDS011;52017;51.230;-2.322;2022-07-25T17:54:52;3.38;;;0.80;;
65407;SDS011;52017;51.230;-2.322;2022-07-25T17:58:36;1.10;;;0.60;;
65407;SDS011;52017;51.230;-2.322;2022-07-25T18:02:18;1.67;;;0.68;;
65407;SDS011;52017;51.230;-2.322;2022-07-25T18:06:09;1.42;;;0.70;;
65407;SDS011;52017;51.230;-2.322;2022-07-25T18:09:55;4.05;;;1.20;;
65407;SDS011;52017;51.230;-2.322;2022-07-25T18:13:39;2.50;;;0.82;;
65407;SDS011;52017;51.230;-2.322;2022-07-25T18:17:22;3.90;;;0.90;;
65407;SDS011;52017;51.230;-2.322;2022-07-25T18:21:07;2.78;;;0.90;;
65407;SDS011;52017;51.230;-2.322;2022-07-25T18:24:55;5.15;;;0.95;;
65407;SDS011;52017;51.230;-2.322;2022-07-25T18:28:39;3.95;;;0.80;;
65407;SDS011;52017;51.230;-2.322;2022-07-25T18:32:21;2.92;;;1.10;;
65407;SDS011;52017;51.230;-2.322;2022-07-25T18:36:04;2.45;;;0.98;;
65407;SDS011;52017;51.230;-2.322;2022-07-25T18:39:48;2.63;;;0.55;;
65407;SDS011;52017;51.230;-2.322;2022-07-25T18:43:30;3.03;;;0.85;;
65407;SDS011;52017;51.230;-2.322;2022-07-25T18:47:14;1.75;;;0.50;;
65407;SDS011;52017;51.230;-2.322;2022-07-25T18:50:58;3.55;;;0.60;;
65407;SDS011;52017;51.230;-2.322;2022-07-25T18:54:40;2.47;;;0.70;;
65407;SDS011;52017;51.230;-2.322;2022-07-25T18:58:24;1.52;;;0.52;;
65407;SDS011;52017;51.230;-2.322;2022-07-25T19:02:06;2.10;;;0.70;;
65407;SDS011;52017;51.230;-2.322;2022-07-25T19:05:48;3.47;;;0.32;;
65407;SDS011;52017;51.230;-2.322;2022-07-25T19:09:31;2.17;;;0.63;;
65407;SDS011;52017;51.230;-2.322;2022-07-25T19:13:13;3.85;;;1.00;;
65407;SDS011;52017;51.230;-2.322;2022-07-25T19:17:15;5.97;;;1.63;;
65407;SDS011;52017;51.230;-2.322;2022-07-25T19:20:58;1.75;;;0.50;;
65407;SDS011;52017;51.230;-2.322;2022-07-25T19:24:41;1.17;;;0.40;;
65407;SDS011;52017;51.230;-2.322;2022-07-25T19:28:23;2.90;;;0.77;;
65407;SDS011;52017;51.230;-2.322;2022-07-25T19:32:06;0.98;;;0.40;;
65407;SDS011;52017;51.230;-2.322;2022-07-25T19:35:48;4.97;;;0.70;;
65407;SDS011;52017;51.230;-2.322;2022-07-25T19:39:33;3.88;;;0.70;;
65407;SDS011;52017;51.230;-2.322;2022-07-25T19:43:15;4.00;;;0.60;;
65407;SDS011;52017;51.230;-2.322;2022-07-25T19:46:58;5.43;;;0.98;;
65407;SDS011;52017;51.230;-2.322;2022-07-25T19:50:42;1.52;;;0.60;;
65407;SDS011;52017;51.230;-2.322;2022-07-25T19:54:26;2.08;;;0.70;;
65407;SDS011;52017;51.230;-2.322;2022-07-25T19:58:09;2.80;;;1.08;;
65407;SDS011;52017;51.230;-2.322;2022-07-25T20:01:52;2.58;;;0.60;;
65407;SDS011;52017;51.230;-2.322;2022-07-25T20:05:36;3.10;;;0.80;;
65407;SDS011;52017;51.230;-2.322;2022-07-25T20:09:18;0.43;;;0.40;;
65407;SDS011;52017;51.230;-2.322;2022-07-25T20:13:00;2.70;;;0.73;;
65407;SDS011;52017;51.230;-2.322;2022-07-25T20:16:43;5.93;;;0.63;;
65407;SDS011;52017;51.230;-2.322;2022-07-25T20:20:26;3.00;;;0.60;;
65407;SDS011;52017;51.230;-2.322;2022-07-25T20:24:11;4.03;;;0.55;;
65407;SDS011;52017;51.230;-2.322;2022-07-25T20:28:01;2.72;;;0.60;;
65407;SDS011;52017;51.230;-2.322;2022-07-25T20:31:43;1.95;;;0.60;;
65407;SDS011;52017;51.230;-2.322;2022-07-25T20:35:26;1.65;;;0.50;;
65407;SDS011;52017;51.230;-2.322;2022-07-25T20:39:14;3.15;;;0.77;;
65407;SDS011;52017;51.230;-2.322;2022-07-25T20:42:56;1.60;;;0.50;;
65407;SDS011;52017;51.230;-2.322;2022-07-25T20:46:39;2.30;;;0.60;;
65407;SDS011;52017;51.230;-2.322;2022-07-25T20:50:25;3.25;;;0.77;;
65407;SDS011;52017;51.230;-2.322;2022-07-25T20:54:09;2.65;;;0.70;;
65407;SDS011;52017;51.230;-2.322;2022-07-25T20:57:54;3.70;;;1.10;;
65407;SDS011;52017;51.230;-2.322;2022-07-25T21:01:40;6.55;;;1.30;;
65407;SDS011;52017;51.230;-2.322;2022-07-25T21:05:23;2.80;;;0.80;;
65407;SDS011;52017;51.230;-2.322;2022-07-25T21:09:08;1.88;;;0.80;;
65407;SDS011;52017;51.230;-2.322;2022-07-25T21:12:52;7.68;;;1.15;;
65407;SDS011;52017;51.230;-2.322;2022-07-25T21:16:37;2.75;;;0.90;;
65407;SDS011;52017;51.230;-2.322;2022-07-25T21:20:19;5.50;;;0.90;;
65407;SDS011;52017;51.230;-2.322;2022-07-25T21:27:48;2.80;;;0.88;;
65407;SDS011;52017;51.230;-2.322;2022-07-25T21:31:30;4.13;;;1.00;;
65407;SDS011;52017;51.230;-2.322;2022-07-25T21:35:14;3.55;;;1.02;;
65407;SDS011;52017;51.230;-2.322;2022-07-25T21:38:56;3.42;;;1.25;;
65407;SDS011;52017;51.230;-2.322;2022-07-25T21:42:38;5.65;;;1.20;;
65407;SDS011;52017;51.230;-2.322;2022-07-25T21:46:21;3.72;;;1.10;;
65407;SDS011;52017;51.230;-2.322;2022-07-25T21:50:04;2.15;;;0.88;;
65407;SDS011;52017;51.230;-2.322;2022-07-25T21:54:06;5.88;;;1.00;;
65407;SDS011;52017;51.230;-2.322;2022-07-25T21:57:49;5.18;;;1.23;;
65407;SDS011;52017;51.230;-2.322;2022-07-25T22:01:33;2.42;;;0.65;;
65407;SDS011;52017;51.230;-2.322;2022-07-25T22:05:17;3.53;;;0.82;;
65407;SDS011;52017;51.230;-2.322;2022-07-25T22:09:01;2.97;;;0.70;;
65407;SDS011;52017;51.230;-2.322;2022-07-25T22:12:45;6.05;;;1.00;;
65407;SDS011;52017;51.230;-2.322;2022-07-25T22:16:28;3.22;;;0.85;;
65407;SDS011;52017;51.230;-2.322;2022-07-25T22:20:13;2.63;;;0.90;;
65407;SDS011;52017;51.230;-2.322;2022-07-25T22:23:55;4.43;;;1.00;;
65407;SDS011;52017;51.230;-2.322;2022-07-25T22:27:40;2.90;;;0.82;;
65407;SDS011;52017;51.230;-2.322;2022-07-25T22:31:24;5.95;;;1.10;;
65407;SDS011;52017;51.230;-2.322;2022-07-25T22:35:08;4.65;;;0.95;;
65407;SDS011;52017;51.230;-2.322;2022-07-25T22:38:50;2.90;;;1.00;;
65407;SDS011;52017;51.230;-2.322;2022-07-25T22:42:33;3.92;;;1.55;;
65407;SDS011;52017;51.230;-2.322;2022-07-25T22:46:15;3.67;;;1.00;;
65407;SDS011;52017;51.230;-2.322;2022-07-25T22:49:58;3.75;;;1.63;;
65407;SDS011;52017;51.230;-2.322;2022-07-25T22:53:41;2.70;;;0.88;;
65407;SDS011;52017;51.230;-2.322;2022-07-25T22:57:23;4.63;;;1.10;;